createdAt,value
2023-04-20T00:00:36.284Z,3.72
2023-04-20T00:02:41.784Z,8.68
2023-04-20T00:04:43.784Z,8.38
2023-04-20T00:06:49.426Z,10.23
2023-04-20T00:09:09.673Z,10.15
2023-04-20T00:11:11.091Z,5.97
2023-04-20T00:13:15.498Z,10.13
2023-04-20T00:15:20.067Z,15.45
2023-04-20T00:17:24.337Z,8.07
2023-04-20T00:19:28.290Z,13.75
2023-04-20T00:21:32.609Z,7.57
2023-04-20T00:23:34.290Z,14.23
2023-04-20T00:25:35.753Z,9.77
2023-04-20T00:27:40.044Z,9.50
2023-04-20T00:29:44.517Z,10.60
2023-04-20T00:31:46.032Z,14.20
2023-04-20T00:33:50.358Z,11.13
2023-04-20T00:35:51.798Z,8.85
2023-04-20T00:37:55.999Z,9.30
2023-04-20T00:39:57.772Z,9.13
2023-04-20T00:42:17.774Z,8.60
2023-04-20T00:44:19.253Z,9.48
2023-04-20T00:46:21.030Z,14.80
2023-04-20T00:48:22.613Z,15.80
2023-04-20T00:50:24.093Z,12.57
2023-04-20T00:52:25.740Z,7.13
2023-04-20T00:54:45.638Z,7.40
2023-04-20T00:56:50.762Z,10.25
2023-04-20T00:58:55.003Z,9.25
2023-04-20T01:03:03.975Z,7.40
2023-04-20T01:05:06.079Z,18.20
2023-04-20T01:07:07.662Z,11.73
2023-04-20T01:09:27.584Z,8.48
2023-04-20T01:11:28.989Z,7.05
2023-04-20T01:13:30.496Z,7.20
2023-04-20T01:15:32.027Z,8.48
2023-04-20T01:17:34.854Z,10.80
2023-04-20T01:19:39.303Z,8.82
2023-04-20T01:21:43.408Z,8.50
2023-04-20T01:23:45.371Z,9.57
2023-04-20T01:25:46.808Z,8.40
2023-04-20T01:27:51.230Z,15.30
2023-04-20T01:29:55.568Z,13.43
2023-04-20T01:31:59.851Z,10.65
2023-04-20T01:34:01.328Z,7.47
2023-04-20T01:38:09.645Z,9.67
2023-04-20T01:40:12.133Z,12.88
2023-04-20T01:42:13.709Z,12.73
2023-04-20T01:46:44.857Z,8.73
2023-04-20T01:49:09.022Z,8.30
2023-04-20T01:51:33.967Z,10.70
2023-04-20T01:53:50.160Z,11.63
2023-04-20T01:56:20.254Z,10.77
2023-04-20T01:59:01.948Z,14.73
2023-04-20T02:01:53.426Z,10.73
2023-04-20T02:04:18.955Z,7.82
2023-04-20T02:06:42.811Z,17.33
2023-04-20T02:08:50.977Z,11.02
2023-04-20T02:11:09.940Z,11.77
2023-04-20T02:13:37.365Z,13.95
2023-04-20T02:16:12.842Z,16.08
2023-04-20T02:18:54.059Z,7.00
2023-04-20T02:20:58.344Z,9.80
2023-04-20T02:25:04.964Z,13.40
2023-04-20T02:27:09.793Z,14.50
2023-04-20T02:29:11.329Z,7.97
2023-04-20T02:31:15.791Z,17.85
2023-04-20T02:33:17.544Z,8.35
2023-04-20T02:35:21.898Z,10.25
2023-04-20T02:37:23.296Z,12.07
2023-04-20T02:39:24.929Z,16.08
2023-04-20T02:41:29.452Z,10.50
2023-04-20T02:43:49.455Z,13.63
2023-04-20T02:45:53.650Z,12.52
2023-04-20T02:48:14.112Z,7.03
2023-04-20T02:50:18.475Z,12.85
2023-04-20T02:52:22.817Z,10.23
2023-04-20T02:54:42.818Z,8.52
2023-04-20T02:56:46.816Z,17.80
2023-04-20T02:58:52.183Z,13.25
2023-04-20T03:01:00.963Z,13.75
2023-04-20T03:03:03.178Z,13.27
2023-04-20T03:05:04.884Z,15.73
2023-04-20T03:07:06.843Z,15.23
2023-04-20T03:09:09.526Z,13.23
2023-04-20T03:11:11.152Z,13.48
2023-04-20T03:13:12.556Z,16.05
2023-04-20T03:15:15.592Z,6.00
2023-04-20T03:17:35.910Z,9.73
2023-04-20T03:19:40.745Z,12.20
2023-04-20T03:22:00.791Z,19.27
2023-04-20T03:24:02.299Z,10.27
2023-04-20T03:26:22.344Z,11.52
2023-04-20T03:28:24.006Z,12.20
2023-04-20T03:30:28.296Z,14.02
2023-04-20T03:32:32.086Z,9.77
2023-04-20T03:34:37.124Z,5.97
2023-04-20T03:36:41.376Z,13.00
2023-04-20T03:38:45.702Z,8.30
2023-04-20T03:42:51.309Z,7.95
2023-04-20T03:44:55.366Z,7.80
2023-04-20T03:46:59.608Z,9.82
2023-04-20T03:49:01.101Z,10.23
2023-04-20T03:51:02.620Z,13.15
2023-04-20T03:53:22.823Z,13.00
2023-04-20T03:55:27.097Z,8.75
2023-04-20T03:57:47.216Z,11.80
2023-04-20T03:59:48.678Z,28.02
2023-04-20T04:01:52.658Z,9.27
2023-04-20T04:04:12.833Z,12.00
2023-04-20T04:06:14.592Z,14.32
2023-04-20T04:08:16.167Z,9.32
2023-04-20T04:10:20.812Z,11.90
2023-04-20T04:12:22.413Z,14.35
2023-04-20T04:14:26.887Z,14.15
2023-04-20T04:16:31.886Z,14.82
2023-04-20T04:18:33.409Z,13.68
2023-04-20T04:20:37.419Z,15.98
2023-04-20T04:22:38.899Z,11.52
2023-04-20T04:24:41.744Z,13.70
2023-04-20T04:27:05.331Z,19.02
2023-04-20T04:29:07.225Z,16.75
2023-04-20T04:31:12.328Z,17.60
2023-04-20T04:33:19.015Z,20.38
2023-04-20T04:35:40.586Z,10.90
2023-04-20T04:37:42.365Z,10.63
2023-04-20T04:39:43.814Z,9.82
2023-04-20T04:41:47.920Z,8.13
2023-04-20T04:43:52.428Z,15.88
2023-04-20T04:48:00.099Z,13.63
2023-04-20T04:50:05.857Z,15.40
2023-04-20T04:52:09.861Z,17.15
2023-04-20T04:56:16.967Z,13.35
2023-04-20T04:58:20.889Z,14.63
2023-04-20T05:00:26.304Z,13.25
2023-04-20T05:02:30.462Z,15.90
2023-04-20T05:04:37.293Z,13.05
2023-04-20T05:06:59.322Z,17.92
2023-04-20T05:09:06.717Z,15.05
2023-04-20T05:11:13.808Z,11.38
2023-04-20T05:13:20.064Z,14.98
2023-04-20T05:15:23.959Z,10.32
2023-04-20T05:17:46.200Z,16.55
2023-04-20T05:19:52.870Z,17.02
2023-04-20T05:21:59.193Z,19.25
2023-04-20T05:24:02.740Z,13.05
2023-04-20T05:26:04.678Z,14.32
2023-04-20T05:28:06.217Z,16.50
2023-04-20T05:30:19.630Z,16.10
2023-04-20T05:32:25.864Z,21.67
2023-04-20T05:34:27.332Z,18.48
2023-04-20T05:36:29.550Z,21.23
2023-04-20T05:38:49.809Z,19.45
2023-04-20T05:42:55.535Z,21.40
2023-04-20T05:44:56.895Z,26.33
2023-04-20T05:49:02.526Z,20.90
2023-04-20T05:51:22.661Z,20.60
2023-04-20T05:55:28.490Z,27.80
2023-04-20T05:57:30.758Z,20.38
2023-04-20T05:59:50.879Z,14.43
2023-04-20T06:01:55.226Z,22.15
2023-04-20T06:03:56.914Z,18.30
2023-04-20T06:06:01.260Z,22.60
2023-04-20T06:10:09.595Z,17.23
2023-04-20T06:12:11.218Z,23.63
2023-04-20T06:14:15.931Z,22.45
2023-04-20T06:16:20.644Z,17.42
2023-04-20T06:18:22.200Z,19.15
2023-04-20T06:20:26.563Z,21.25
2023-04-20T06:22:30.959Z,17.50
2023-04-20T06:24:33.090Z,16.73
2023-04-20T06:26:34.535Z,17.52
2023-04-20T06:28:36.705Z,16.58
2023-04-20T06:30:40.769Z,19.92
2023-04-20T06:32:42.278Z,21.50
2023-04-20T06:35:04.141Z,14.68
2023-04-20T06:37:08.205Z,20.35
2023-04-20T06:39:11.342Z,12.90
2023-04-20T06:41:12.815Z,18.23
2023-04-20T06:43:14.225Z,15.35
2023-04-20T06:45:15.724Z,19.38
2023-04-20T06:47:20.790Z,14.95
2023-04-20T06:49:22.314Z,17.27
2023-04-20T06:51:29.522Z,15.15
2023-04-20T06:53:31.069Z,13.75
2023-04-20T06:55:32.464Z,12.45
2023-04-20T06:59:39.963Z,12.18
2023-04-20T07:01:41.532Z,15.65
2023-04-20T07:03:43.998Z,16.05
2023-04-20T07:05:45.686Z,19.02
2023-04-20T07:07:47.339Z,18.85
2023-04-20T07:09:49.434Z,8.02
2023-04-20T07:11:53.793Z,14.27
2023-04-20T07:13:55.410Z,11.63
2023-04-20T07:15:57.282Z,15.90
2023-04-20T07:18:01.528Z,17.27
2023-04-20T07:20:07.313Z,10.68
2023-04-20T07:22:11.773Z,15.30
2023-04-20T07:24:13.278Z,11.95
2023-04-20T07:26:17.324Z,10.13
2023-04-20T07:28:21.667Z,13.25
2023-04-20T07:30:25.852Z,12.57
2023-04-20T07:32:27.494Z,14.68
2023-04-20T07:34:28.953Z,10.68
2023-04-20T07:36:30.389Z,13.48
2023-04-20T07:38:34.518Z,13.50
2023-04-20T07:40:39.025Z,8.77
2023-04-20T07:42:40.521Z,10.05
2023-04-20T07:44:42.077Z,10.05
2023-04-20T07:46:43.521Z,15.75
2023-04-20T07:49:03.579Z,12.63
2023-04-20T07:51:23.677Z,12.55
2023-04-20T07:53:29.184Z,12.57
2023-04-20T07:55:36.975Z,11.82
2023-04-20T07:57:41.363Z,11.05
2023-04-20T07:59:52.322Z,15.70
2023-04-20T08:02:06.028Z,11.90
2023-04-20T08:04:17.779Z,9.93
2023-04-20T08:06:27.763Z,10.48
2023-04-20T08:08:34.116Z,6.05
2023-04-20T08:10:46.715Z,9.02
2023-04-20T08:12:55.356Z,8.60
2023-04-20T08:15:02.966Z,10.32
2023-04-20T08:17:10.412Z,10.43
2023-04-20T08:21:35.458Z,12.60
2023-04-20T08:23:44.238Z,14.00
2023-04-20T08:25:48.101Z,10.25
2023-04-20T08:27:50.822Z,8.85
2023-04-20T08:30:01.400Z,9.25
2023-04-20T08:32:14.388Z,9.73
2023-04-20T08:34:17.176Z,10.30
2023-04-20T08:36:18.801Z,5.57
2023-04-20T08:38:32.931Z,7.47
2023-04-20T08:40:36.639Z,9.45
2023-04-20T08:42:41.143Z,8.30
2023-04-20T08:44:43.027Z,9.63
2023-04-20T08:46:46.712Z,10.95
2023-04-20T08:48:48.706Z,13.82
2023-04-20T08:50:53.265Z,11.75
2023-04-20T08:52:57.750Z,5.88
2023-04-20T08:55:01.857Z,12.63
2023-04-20T08:57:05.996Z,9.70
2023-04-20T08:59:10.556Z,7.43
2023-04-20T09:01:17.637Z,6.25
2023-04-20T09:03:34.310Z,10.55
2023-04-20T09:05:35.981Z,7.55
2023-04-20T09:07:37.567Z,12.73
2023-04-20T09:09:39.072Z,12.27
2023-04-20T09:11:40.622Z,8.73
2023-04-20T09:13:42.144Z,10.93
2023-04-20T09:16:12.457Z,7.75
2023-04-20T09:18:14.558Z,5.30
2023-04-20T09:20:16.400Z,8.77
2023-04-20T09:22:29.981Z,9.73
2023-04-20T09:24:50.686Z,8.23
2023-04-20T09:26:52.138Z,14.18
2023-04-20T09:28:53.773Z,9.00
2023-04-20T09:30:57.995Z,10.05
2023-04-20T09:33:01.389Z,10.52
2023-04-20T09:35:02.925Z,6.82
2023-04-20T09:37:23.258Z,6.05
2023-04-20T09:39:28.172Z,7.38
2023-04-20T09:41:49.373Z,5.32
2023-04-20T09:43:51.156Z,5.20
2023-04-20T09:45:56.510Z,16.75
2023-04-20T09:47:58.542Z,7.55
2023-04-20T09:50:10.284Z,9.63
2023-04-20T09:52:27.479Z,4.80
2023-04-20T09:54:31.975Z,6.75
2023-04-20T09:56:52.443Z,12.40
2023-04-20T09:58:56.982Z,11.65
2023-04-20T10:01:01.924Z,6.55
2023-04-20T10:03:09.093Z,7.15
2023-04-20T10:05:13.690Z,9.57
2023-04-20T10:07:23.697Z,5.22
2023-04-20T10:09:27.928Z,8.50
2023-04-20T10:11:37.102Z,10.23
2023-04-20T10:13:46.560Z,10.15
2023-04-20T10:16:16.985Z,9.63
2023-04-20T10:18:23.834Z,7.20
2023-04-20T10:20:28.765Z,5.88
2023-04-20T10:22:33.541Z,3.67
2023-04-20T10:24:37.893Z,6.95
2023-04-20T10:26:40.495Z,10.75
2023-04-20T10:28:45.090Z,7.43
2023-04-20T10:30:50.803Z,7.03
2023-04-20T10:33:07.791Z,1077.40
2023-04-20T10:35:28.140Z,1045.20
2023-04-20T10:37:29.780Z,1048.35
2023-04-20T10:39:34.575Z,1049.55
2023-04-20T10:41:38.835Z,1060.15
2023-04-20T10:43:43.589Z,1041.07
2023-04-20T10:45:48.665Z,1040.15
2023-04-20T10:47:50.165Z,1029.88
2023-04-20T10:49:54.509Z,1054.05
2023-04-20T10:51:56.065Z,1042.22
2023-04-20T10:54:18.173Z,1031.10
2023-04-20T10:56:22.573Z,1019.55
2023-04-20T10:58:26.838Z,1000.95
2023-04-20T11:00:28.856Z,979.92
2023-04-20T11:02:35.996Z,980.35
2023-04-20T11:04:46.884Z,977.65
2023-04-20T11:09:22.580Z,963.55
2023-04-20T11:11:28.853Z,5.38
2023-04-20T11:13:38.461Z,3.50
2023-04-20T11:15:46.046Z,10.40
2023-04-20T11:17:49.778Z,6.47
2023-04-20T11:19:52.332Z,10.18
2023-04-20T11:22:03.694Z,4.30
2023-04-20T11:24:20.662Z,6.03
2023-04-20T11:26:36.007Z,4.65
2023-04-20T11:28:58.218Z,6.28
2023-04-20T11:31:19.708Z,6.47
2023-04-20T11:33:34.486Z,3.95
2023-04-20T11:35:44.116Z,8.30
2023-04-20T11:37:55.285Z,10.52
2023-04-20T11:40:01.606Z,3.90
2023-04-20T11:42:03.422Z,5.80
2023-04-20T11:44:07.363Z,5.18
2023-04-20T11:46:20.993Z,5.10
2023-04-20T11:48:22.675Z,7.55
2023-04-20T11:50:25.013Z,6.95
2023-04-20T11:52:32.641Z,2.92
2023-04-20T11:54:35.111Z,7.88
2023-04-20T11:56:37.323Z,2.10
2023-04-20T11:58:41.532Z,3.67
2023-04-20T12:00:42.976Z,3.40
2023-04-20T12:02:47.520Z,6.38
2023-04-20T12:04:51.698Z,7.20
2023-04-20T12:06:56.314Z,3.65
2023-04-20T12:08:58.038Z,4.68
2023-04-20T12:11:02.223Z,4.40
2023-04-20T12:13:22.413Z,2.72
2023-04-20T12:15:24.592Z,6.03
2023-04-20T12:17:29.128Z,6.43
2023-04-20T12:19:33.596Z,3.42
2023-04-20T12:21:37.749Z,4.05
2023-04-20T12:23:43.862Z,2.13
2023-04-20T12:25:49.394Z,2.22
2023-04-20T12:27:50.902Z,4.28
2023-04-20T12:29:55.494Z,5.18
2023-04-20T12:32:00.137Z,3.63
2023-04-20T12:34:02.247Z,12.63
2023-04-20T12:36:06.739Z,3.05
2023-04-20T12:38:12.787Z,3.47
2023-04-20T12:40:18.115Z,3.20
2023-04-20T12:42:22.192Z,3.83
2023-04-20T12:44:23.644Z,4.72
2023-04-20T12:46:27.946Z,4.03
2023-04-20T12:48:32.216Z,2.63
2023-04-20T12:50:36.464Z,2.33
2023-04-20T12:52:40.839Z,8.95
2023-04-20T12:55:01.732Z,5.15
2023-04-20T12:57:03.632Z,3.33
2023-04-20T12:59:08.467Z,4.88
2023-04-20T13:01:12.609Z,6.50
2023-04-20T13:03:14.301Z,4.93
2023-04-20T13:05:16.395Z,2.72
2023-04-20T13:07:20.818Z,2.65
2023-04-20T13:09:27.087Z,2.92
2023-04-20T13:11:34.501Z,9.07
2023-04-20T13:13:35.909Z,9.70
2023-04-20T13:15:56.159Z,4.00
2023-04-20T13:18:00.903Z,3.17
2023-04-20T13:20:02.592Z,4.30
2023-04-20T13:22:06.913Z,5.78
2023-04-20T13:24:08.466Z,5.30
2023-04-20T13:26:12.864Z,5.85
2023-04-20T13:28:33.060Z,6.45
2023-04-20T13:30:38.055Z,4.60
2023-04-20T13:32:58.595Z,6.60
2023-04-20T13:35:02.993Z,8.75
2023-04-20T13:37:04.544Z,3.47
2023-04-20T13:39:10.200Z,3.15
2023-04-20T13:41:15.293Z,10.95
2023-04-20T13:43:35.132Z,8.90
2023-04-20T13:45:36.623Z,4.03
2023-04-20T13:47:40.938Z,3.88
2023-04-20T13:49:42.491Z,7.50
2023-04-20T13:51:43.988Z,10.00
2023-04-20T13:53:48.578Z,6.28
2023-04-20T13:55:50.032Z,3.22
2023-04-20T13:57:51.474Z,5.45
2023-04-20T13:59:55.860Z,2.92
2023-04-20T14:02:00.004Z,4.15
2023-04-20T14:04:01.670Z,2.97
2023-04-20T14:06:03.714Z,5.95
2023-04-20T14:08:07.923Z,12.13
2023-04-20T14:10:36.833Z,8.45
2023-04-20T14:12:49.317Z,4.68
2023-04-20T14:14:57.687Z,4.32
2023-04-20T14:17:00.770Z,3.80
2023-04-20T14:19:08.054Z,8.00
2023-04-20T14:21:15.899Z,7.82
2023-04-20T14:23:24.992Z,9.00
2023-04-20T14:25:39.082Z,2.90
2023-04-20T14:27:43.598Z,4.18
2023-04-20T14:29:54.955Z,4.60
2023-04-20T14:32:03.997Z,6.15
2023-04-20T14:34:12.546Z,7.07
2023-04-20T14:36:17.118Z,3.30
2023-04-20T14:38:27.603Z,5.03
2023-04-20T14:40:35.519Z,19.60
2023-04-20T14:42:44.227Z,3.90
2023-04-20T14:44:54.239Z,4.18
2023-04-20T14:47:15.157Z,3.10
2023-04-20T14:49:16.733Z,4.50
2023-04-20T14:51:20.032Z,7.45
2023-04-20T14:53:24.361Z,3.85
2023-04-20T14:55:25.979Z,5.05
2023-04-20T14:57:27.904Z,7.80
2023-04-20T14:59:33.820Z,2.78
2023-04-20T15:02:02.433Z,5.05
2023-04-20T15:04:05.071Z,3.78
2023-04-20T15:06:06.895Z,5.40
2023-04-20T15:08:11.056Z,15.07
2023-04-20T15:10:15.118Z,4.03
2023-04-20T15:12:20.924Z,4.20
2023-04-20T15:14:22.745Z,5.03
2023-04-20T15:16:27.027Z,3.58
2023-04-20T15:18:28.544Z,2.53
2023-04-20T15:20:30.020Z,2.67
2023-04-20T15:22:34.548Z,3.85
2023-04-20T15:24:54.530Z,4.63
2023-04-20T15:26:58.566Z,7.25
2023-04-20T15:29:00.192Z,6.45
2023-04-20T15:31:01.884Z,6.38
2023-04-20T15:33:04.708Z,7.28
2023-04-20T15:35:07.080Z,5.60
2023-04-20T15:37:08.649Z,3.40
2023-04-20T15:39:13.138Z,2.63
2023-04-20T15:41:16.332Z,3.05
2023-04-20T15:43:17.901Z,5.93
2023-04-20T15:45:22.978Z,4.50
2023-04-20T15:47:24.477Z,3.25
2023-04-20T15:49:28.787Z,2.78
2023-04-20T15:51:30.261Z,5.55
2023-04-20T15:53:35.335Z,4.68
2023-04-20T15:55:39.603Z,3.97
2023-04-20T15:57:42.636Z,8.57
2023-04-20T15:59:48.091Z,9.15
2023-04-20T16:01:53.333Z,1.38
2023-04-20T16:03:55.477Z,4.30
2023-04-20T16:05:57.083Z,5.65
2023-04-20T16:08:01.391Z,4.28
2023-04-20T16:10:06.849Z,3.13
2023-04-20T16:12:08.544Z,4.93
2023-04-20T16:14:28.812Z,2.70
2023-04-20T16:16:33.556Z,4.85
2023-04-20T16:18:35.072Z,1.60
2023-04-20T16:20:36.617Z,4.60
2023-04-20T16:22:41.027Z,3.65
2023-04-20T16:24:45.485Z,5.80
2023-04-20T16:26:49.705Z,6.28
2023-04-20T16:30:55.158Z,1.67
2023-04-20T16:33:00.274Z,1.20
2023-04-20T16:35:04.624Z,3.50
2023-04-20T16:37:06.503Z,4.95
2023-04-20T16:39:10.164Z,4.45
2023-04-20T16:41:14.575Z,7.18
2023-04-20T16:43:16.228Z,2.50
2023-04-20T16:45:20.514Z,2.30
2023-04-20T16:47:24.866Z,0.88
2023-04-20T16:49:29.241Z,3.97
2023-04-20T16:51:33.662Z,3.42
2023-04-20T16:53:37.895Z,0.73
2023-04-20T16:55:42.478Z,3.47
2023-04-20T16:57:46.702Z,15.18
2023-04-20T16:59:51.112Z,6.43
2023-04-20T17:02:11.419Z,3.05
2023-04-20T17:04:13.188Z,2.92
2023-04-20T17:06:17.695Z,1.75
2023-04-20T17:08:22.160Z,1.70
2023-04-20T17:10:26.261Z,6.35
2023-04-20T17:12:28.018Z,1.38
2023-04-20T17:14:35.768Z,7.13
2023-04-20T17:16:51.091Z,3.58
2023-04-20T17:19:03.924Z,5.35
2023-04-20T17:21:15.141Z,4.72
2023-04-20T17:23:30.931Z,3.03
2023-04-20T17:25:35.962Z,1.77
2023-04-20T17:27:47.608Z,4.70
2023-04-20T17:30:02.208Z,3.85
2023-04-20T17:32:12.789Z,1.95
2023-04-20T17:34:25.630Z,8.85
2023-04-20T17:36:36.250Z,4.68
2023-04-20T17:38:42.714Z,5.80
2023-04-20T17:40:49.705Z,10.10
2023-04-20T17:43:03.449Z,6.00
2023-04-20T17:45:10.375Z,3.85
2023-04-20T17:47:16.395Z,4.47
2023-04-20T17:49:28.313Z,5.70
2023-04-20T17:51:33.416Z,4.13
2023-04-20T17:53:37.512Z,6.47
2023-04-20T17:55:39.468Z,7.38
2023-04-20T17:57:43.697Z,5.60
2023-04-20T17:59:45.262Z,8.40
2023-04-20T18:01:49.807Z,5.40
2023-04-20T18:03:51.946Z,6.65
2023-04-20T18:06:12.117Z,4.18
2023-04-20T18:08:17.715Z,3.78
2023-04-20T18:10:19.706Z,7.10
2023-04-20T18:12:21.327Z,6.75
2023-04-20T18:14:25.534Z,2.63
2023-04-20T18:16:29.762Z,8.80
2023-04-20T18:18:31.196Z,4.90
2023-04-20T18:20:32.792Z,8.45
2023-04-20T18:22:52.996Z,5.25
2023-04-20T18:25:13.093Z,19.42
2023-04-20T18:27:17.213Z,16.70
2023-04-20T18:29:22.023Z,8.50
2023-04-20T18:31:23.641Z,10.40
2023-04-20T18:33:27.994Z,10.35
2023-04-20T18:35:35.714Z,11.40
2023-04-20T18:37:37.438Z,7.63
2023-04-20T18:39:57.952Z,8.40
2023-04-20T18:42:00.114Z,9.93
2023-04-20T18:44:01.953Z,5.20
2023-04-20T18:46:21.885Z,12.75
2023-04-20T18:48:26.136Z,9.65
2023-04-20T18:50:30.503Z,12.85
2023-04-20T18:52:50.462Z,12.73
2023-04-20T18:54:52.700Z,9.60
2023-04-20T18:56:57.113Z,13.30
2023-04-20T18:59:00.313Z,7.65
2023-04-20T19:01:20.615Z,10.63
2023-04-20T19:03:22.218Z,8.27
2023-04-20T19:05:23.857Z,14.55
2023-04-20T19:07:25.471Z,9.80
2023-04-20T19:09:27.056Z,4.93
2023-04-20T19:11:31.352Z,7.20
2023-04-20T19:13:51.741Z,6.25
2023-04-20T19:16:12.157Z,2.63
2023-04-20T19:18:20.301Z,4.53
2023-04-20T19:20:25.063Z,4.40
2023-04-20T19:22:29.451Z,5.80
2023-04-20T19:24:32.130Z,7.70
2023-04-20T19:26:33.802Z,3.97
2023-04-20T19:28:41.200Z,4.25
2023-04-20T19:30:42.824Z,8.45
2023-04-20T19:32:47.186Z,6.80
2023-04-20T19:34:48.671Z,7.82
2023-04-20T19:37:08.557Z,3.58
2023-04-20T19:39:12.813Z,9.55
2023-04-20T19:41:17.116Z,79.07
2023-04-20T19:43:37.608Z,433.37
2023-04-20T19:45:41.665Z,434.43
2023-04-20T19:47:46.324Z,68.10
2023-04-20T19:49:50.886Z,3.28
2023-04-20T19:51:55.167Z,4.22
2023-04-20T19:53:58.558Z,4.93
2023-04-20T19:56:00.321Z,5.45
2023-04-20T19:58:01.897Z,5.65
2023-04-20T20:02:07.582Z,2.60
2023-04-20T20:04:12.278Z,3.38
2023-04-20T20:06:16.518Z,9.30
2023-04-20T20:08:18.020Z,4.20
2023-04-20T20:12:26.312Z,3.17
2023-04-20T20:14:34.123Z,5.13
2023-04-20T20:16:39.361Z,4.35
2023-04-20T20:18:43.998Z,6.70
2023-04-20T20:20:51.077Z,4.22
2023-04-20T20:22:56.769Z,5.43
2023-04-20T20:25:04.082Z,6.07
2023-04-20T20:27:16.265Z,3.22
2023-04-20T20:29:21.698Z,3.78
2023-04-20T20:31:30.828Z,4.85
2023-04-20T20:33:39.162Z,2.88
2023-04-20T20:35:45.295Z,5.70
2023-04-20T20:37:50.484Z,2.75
2023-04-20T20:39:56.209Z,3.00
2023-04-20T20:42:00.722Z,3.30
2023-04-20T20:44:08.045Z,2.78
2023-04-20T20:46:16.620Z,2.95
2023-04-20T20:48:22.532Z,2.65
2023-04-20T20:50:30.939Z,4.13
2023-04-20T20:52:40.011Z,5.97
2023-04-20T20:54:47.716Z,10.68
2023-04-20T20:56:52.765Z,4.00
2023-04-20T20:58:57.808Z,7.32
2023-04-20T21:00:59.249Z,4.35
2023-04-20T21:03:04.191Z,4.05
2023-04-20T21:05:24.497Z,5.80
2023-04-20T21:07:26.201Z,4.90
2023-04-20T21:09:46.328Z,4.75
2023-04-20T21:11:50.686Z,5.40
2023-04-20T21:14:01.414Z,6.38
2023-04-20T21:16:05.903Z,7.40
2023-04-20T21:18:10.238Z,8.40
2023-04-20T21:20:11.981Z,6.53
2023-04-20T21:22:16.642Z,5.97
2023-04-20T21:24:19.149Z,7.03
2023-04-20T21:26:20.675Z,10.93
2023-04-20T21:28:22.147Z,7.57
2023-04-20T21:30:23.594Z,6.88
2023-04-20T21:32:27.969Z,6.93
2023-04-20T21:34:29.577Z,8.10
2023-04-20T21:36:34.077Z,8.98
2023-04-20T21:38:35.675Z,7.80
2023-04-20T21:42:41.041Z,9.93
2023-04-20T21:44:45.341Z,9.95
2023-04-20T21:46:49.627Z,9.82
2023-04-20T21:48:54.010Z,10.93
2023-04-20T21:50:55.584Z,8.27
2023-04-20T21:52:57.042Z,7.55
2023-04-20T21:54:58.516Z,9.70
2023-04-20T21:56:59.997Z,7.97
2023-04-20T21:59:01.682Z,8.00
2023-04-20T22:01:05.801Z,11.88
2023-04-20T22:03:10.403Z,11.38
2023-04-20T22:05:12.305Z,7.85
2023-04-20T22:07:17.663Z,8.90
2023-04-20T22:09:22.237Z,9.60
2023-04-20T22:11:26.795Z,13.65
2023-04-20T22:15:35.211Z,9.13
2023-04-20T22:17:37.887Z,10.48
2023-04-20T22:19:42.230Z,11.10
2023-04-20T22:21:43.816Z,11.60
2023-04-20T22:23:47.974Z,11.40
2023-04-20T22:25:49.665Z,12.98
2023-04-20T22:27:53.734Z,9.55
2023-04-20T22:29:55.234Z,11.15
2023-04-20T22:32:15.451Z,9.70
2023-04-20T22:34:16.872Z,13.10
2023-04-20T22:36:18.524Z,11.07
2023-04-20T22:38:22.542Z,12.35
2023-04-20T22:40:23.996Z,11.95
2023-04-20T22:42:25.588Z,12.82
2023-04-20T22:44:29.976Z,16.23
2023-04-20T22:46:34.298Z,14.50
2023-04-20T22:48:38.618Z,13.13
2023-04-20T22:50:40.575Z,10.10
2023-04-20T22:53:00.666Z,12.65
2023-04-20T22:55:02.111Z,12.73
2023-04-20T22:57:03.816Z,13.55
2023-04-20T22:59:05.234Z,15.32
2023-04-20T23:01:09.683Z,13.90
2023-04-20T23:03:11.303Z,14.23
2023-04-20T23:05:12.918Z,15.98
2023-04-20T23:07:14.400Z,10.05
2023-04-20T23:11:28.638Z,13.57
2023-04-20T23:13:30.079Z,14.57
2023-04-20T23:15:31.499Z,15.88
2023-04-20T23:19:40.348Z,14.37
2023-04-20T23:21:42.102Z,13.85
2023-04-20T23:23:43.510Z,14.00
2023-04-20T23:25:47.839Z,14.55
2023-04-20T23:27:53.533Z,13.95
2023-04-20T23:29:58.986Z,15.15
2023-04-20T23:32:03.926Z,11.82
2023-04-20T23:34:05.703Z,13.68
2023-04-20T23:36:07.378Z,14.05
2023-04-20T23:38:08.895Z,17.85
2023-04-20T23:40:13.425Z,15.63
2023-04-20T23:42:14.954Z,14.25
2023-04-20T23:44:18.994Z,16.58
2023-04-20T23:46:39.667Z,14.70
2023-04-20T23:48:41.173Z,21.20
2023-04-20T23:50:42.670Z,17.23
2023-04-20T23:52:47.130Z,12.93
2023-04-20T23:54:51.560Z,16.42
2023-04-20T23:56:55.938Z,15.15
2023-04-20T23:58:58.696Z,16.30
